Weather at Earlton (Timiskaming Regional) Airport

Public forecast

Using degrees Celsius for public forecast. Weather courtesy of forecast.io.

Current aviation weather report (METAR) for Earlton (Timiskaming Regional) Airport

Retrieved 2021/10/20 00:00 UTC (15 minutes ago):

CYXR 200000Z AUTO 25003KT 9SM CLR 14/08 A2980 RMK SLP102 DENSITY ALT 1000FT

Aviation forecast (TAF) for Earlton (Timiskaming Regional) Airport

Forecast is more than 6 hours old.

Retrieved 2021/10/19 18:00 UTC (6 hours ago):

TAF CYXR 191739Z 1918/1924 27006KT P6SM SKC RMK FCST BASED ON AUTO OBS NXT FCST WILL BE ISSUED AT 201145Z